sensor_id;sensor_type;location;lat;lon;timestamp;P1;durP1;ratioP1;P2;durP2;ratioP2
7108;SDS011;29079;41.930;25.558;2022-09-28T00:00:32;6.78;;;5.30;;
7108;SDS011;29079;41.930;25.558;2022-09-28T00:03:01;5.60;;;4.80;;
7108;SDS011;29079;41.930;25.558;2022-09-28T00:05:31;9.77;;;5.97;;
7108;SDS011;29079;41.930;25.558;2022-09-28T00:08:01;10.85;;;5.97;;
7108;SDS011;29079;41.930;25.558;2022-09-28T00:10:31;6.05;;;4.75;;
7108;SDS011;29079;41.930;25.558;2022-09-28T00:13:01;8.15;;;5.80;;
7108;SDS011;29079;41.930;25.558;2022-09-28T00:15:32;8.18;;;4.80;;
7108;SDS011;29079;41.930;25.558;2022-09-28T00:18:02;9.00;;;5.15;;
7108;SDS011;29079;41.930;25.558;2022-09-28T00:20:32;8.27;;;5.55;;
7108;SDS011;29079;41.930;25.558;2022-09-28T00:23:02;9.23;;;5.30;;
7108;SDS011;29079;41.930;25.558;2022-09-28T00:25:32;10.48;;;6.28;;
7108;SDS011;29079;41.930;25.558;2022-09-28T00:28:01;5.45;;;4.70;;
7108;SDS011;29079;41.930;25.558;2022-09-28T00:30:33;7.20;;;5.88;;
7108;SDS011;29079;41.930;25.558;2022-09-28T00:33:03;12.48;;;8.10;;
7108;SDS011;29079;41.930;25.558;2022-09-28T00:35:33;7.32;;;5.82;;
7108;SDS011;29079;41.930;25.558;2022-09-28T00:38:03;8.18;;;6.22;;
7108;SDS011;29079;41.930;25.558;2022-09-28T00:40:33;11.68;;;6.03;;
7108;SDS011;29079;41.930;25.558;2022-09-28T00:43:15;8.50;;;5.30;;
7108;SDS011;29079;41.930;25.558;2022-09-28T00:45:48;8.32;;;5.32;;
7108;SDS011;29079;41.930;25.558;2022-09-28T00:48:23;10.18;;;6.30;;
7108;SDS011;29079;41.930;25.558;2022-09-28T00:50:58;7.40;;;4.93;;
7108;SDS011;29079;41.930;25.558;2022-09-28T00:53:31;8.45;;;5.10;;
7108;SDS011;29079;41.930;25.558;2022-09-28T00:56:05;7.78;;;4.88;;
7108;SDS011;29079;41.930;25.558;2022-09-28T00:58:40;8.65;;;5.20;;
7108;SDS011;29079;41.930;25.558;2022-09-28T01:01:15;7.35;;;5.10;;
7108;SDS011;29079;41.930;25.558;2022-09-28T01:03:45;5.68;;;5.15;;
7108;SDS011;29079;41.930;25.558;2022-09-28T01:06:17;7.85;;;5.55;;
7108;SDS011;29079;41.930;25.558;2022-09-28T01:08:49;15.15;;;5.63;;
7108;SDS011;29079;41.930;25.558;2022-09-28T01:11:21;7.05;;;5.45;;
7108;SDS011;29079;41.930;25.558;2022-09-28T01:13:51;7.13;;;5.90;;
7108;SDS011;29079;41.930;25.558;2022-09-28T01:16:26;11.30;;;5.68;;
7108;SDS011;29079;41.930;25.558;2022-09-28T01:19:04;9.82;;;6.53;;
7108;SDS011;29079;41.930;25.558;2022-09-28T01:21:54;10.00;;;6.13;;
7108;SDS011;29079;41.930;25.558;2022-09-28T01:24:38;12.32;;;5.53;;
7108;SDS011;29079;41.930;25.558;2022-09-28T01:27:13;6.10;;;5.55;;
7108;SDS011;29079;41.930;25.558;2022-09-28T01:29:51;5.75;;;5.15;;
7108;SDS011;29079;41.930;25.558;2022-09-28T01:32:29;8.02;;;5.57;;
7108;SDS011;29079;41.930;25.558;2022-09-28T01:35:05;12.02;;;5.80;;
7108;SDS011;29079;41.930;25.558;2022-09-28T01:37:41;8.93;;;5.40;;
7108;SDS011;29079;41.930;25.558;2022-09-28T01:40:15;8.65;;;6.43;;
7108;SDS011;29079;41.930;25.558;2022-09-28T01:42:48;9.57;;;5.53;;
7108;SDS011;29079;41.930;25.558;2022-09-28T01:45:24;8.85;;;5.22;;
7108;SDS011;29079;41.930;25.558;2022-09-28T01:48:00;8.23;;;5.30;;
7108;SDS011;29079;41.930;25.558;2022-09-28T01:50:34;9.20;;;5.50;;
7108;SDS011;29079;41.930;25.558;2022-09-28T01:53:09;7.95;;;6.30;;
7108;SDS011;29079;41.930;25.558;2022-09-28T01:55:43;6.10;;;5.57;;
7108;SDS011;29079;41.930;25.558;2022-09-28T01:58:17;9.63;;;5.72;;
7108;SDS011;29079;41.930;25.558;2022-09-28T02:00:54;9.82;;;5.50;;
7108;SDS011;29079;41.930;25.558;2022-09-28T02:03:30;7.45;;;5.70;;
7108;SDS011;29079;41.930;25.558;2022-09-28T02:06:05;8.70;;;6.40;;
7108;SDS011;29079;41.930;25.558;2022-09-28T02:08:40;7.57;;;5.38;;
7108;SDS011;29079;41.930;25.558;2022-09-28T02:11:18;7.53;;;5.80;;
7108;SDS011;29079;41.930;25.558;2022-09-28T02:13:51;7.20;;;5.75;;
7108;SDS011;29079;41.930;25.558;2022-09-28T02:16:28;7.75;;;6.30;;
7108;SDS011;29079;41.930;25.558;2022-09-28T02:19:03;9.02;;;6.43;;
7108;SDS011;29079;41.930;25.558;2022-09-28T02:21:37;10.73;;;5.83;;
7108;SDS011;29079;41.930;25.558;2022-09-28T02:24:13;7.40;;;5.47;;
7108;SDS011;29079;41.930;25.558;2022-09-28T02:26:48;9.75;;;6.32;;
7108;SDS011;29079;41.930;25.558;2022-09-28T02:29:21;6.80;;;6.07;;
7108;SDS011;29079;41.930;25.558;2022-09-28T02:31:51;7.00;;;5.68;;
7108;SDS011;29079;41.930;25.558;2022-09-28T02:34:21;7.63;;;5.72;;
7108;SDS011;29079;41.930;25.558;2022-09-28T02:36:51;8.05;;;5.80;;
7108;SDS011;29079;41.930;25.558;2022-09-28T02:39:21;8.10;;;6.10;;
7108;SDS011;29079;41.930;25.558;2022-09-28T02:41:54;7.35;;;5.57;;
7108;SDS011;29079;41.930;25.558;2022-09-28T02:47:27;8.68;;;5.47;;
7108;SDS011;29079;41.930;25.558;2022-09-28T02:50:08;5.93;;;4.78;;
7108;SDS011;29079;41.930;25.558;2022-09-28T02:52:56;10.18;;;5.35;;
7108;SDS011;29079;41.930;25.558;2022-09-28T02:58:19;7.88;;;5.70;;
7108;SDS011;29079;41.930;25.558;2022-09-28T03:00:59;8.25;;;5.63;;
7108;SDS011;29079;41.930;25.558;2022-09-28T03:03:36;7.05;;;5.70;;
7108;SDS011;29079;41.930;25.558;2022-09-28T03:06:16;10.18;;;6.25;;
7108;SDS011;29079;41.930;25.558;2022-09-28T03:08:53;8.40;;;5.43;;
7108;SDS011;29079;41.930;25.558;2022-09-28T03:11:29;7.95;;;6.18;;
7108;SDS011;29079;41.930;25.558;2022-09-28T03:14:03;7.03;;;5.60;;
7108;SDS011;29079;41.930;25.558;2022-09-28T03:16:35;6.25;;;5.65;;
7108;SDS011;29079;41.930;25.558;2022-09-28T03:19:05;7.68;;;5.20;;
7108;SDS011;29079;41.930;25.558;2022-09-28T03:21:35;7.93;;;6.03;;
7108;SDS011;29079;41.930;25.558;2022-09-28T03:24:05;7.53;;;5.93;;
7108;SDS011;29079;41.930;25.558;2022-09-28T03:26:38;7.93;;;5.45;;
7108;SDS011;29079;41.930;25.558;2022-09-28T03:29:08;7.95;;;5.70;;
7108;SDS011;29079;41.930;25.558;2022-09-28T03:31:39;6.75;;;5.55;;
7108;SDS011;29079;41.930;25.558;2022-09-28T03:34:09;6.28;;;5.50;;
7108;SDS011;29079;41.930;25.558;2022-09-28T03:36:39;10.60;;;5.45;;
7108;SDS011;29079;41.930;25.558;2022-09-28T03:39:09;10.98;;;5.03;;
7108;SDS011;29079;41.930;25.558;2022-09-28T03:41:38;7.38;;;4.72;;
7108;SDS011;29079;41.930;25.558;2022-09-28T03:44:08;5.32;;;4.30;;
7108;SDS011;29079;41.930;25.558;2022-09-28T03:46:40;8.13;;;5.00;;
7108;SDS011;29079;41.930;25.558;2022-09-28T03:49:10;7.35;;;5.30;;
7108;SDS011;29079;41.930;25.558;2022-09-28T03:51:40;10.45;;;5.88;;
7108;SDS011;29079;41.930;25.558;2022-09-28T03:54:10;8.20;;;5.72;;
7108;SDS011;29079;41.930;25.558;2022-09-28T03:56:40;5.40;;;4.90;;
7108;SDS011;29079;41.930;25.558;2022-09-28T03:59:10;12.13;;;6.03;;
7108;SDS011;29079;41.930;25.558;2022-09-28T04:01:41;9.15;;;6.10;;
7108;SDS011;29079;41.930;25.558;2022-09-28T04:04:11;7.22;;;6.22;;
7108;SDS011;29079;41.930;25.558;2022-09-28T04:06:41;13.38;;;5.82;;
7108;SDS011;29079;41.930;25.558;2022-09-28T04:09:11;9.20;;;6.00;;
7108;SDS011;29079;41.930;25.558;2022-09-28T04:11:41;8.85;;;6.72;;
7108;SDS011;29079;41.930;25.558;2022-09-28T04:14:31;8.38;;;6.88;;
7108;SDS011;29079;41.930;25.558;2022-09-28T04:17:02;13.23;;;8.50;;
7108;SDS011;29079;41.930;25.558;2022-09-28T04:19:33;11.30;;;7.10;;
7108;SDS011;29079;41.930;25.558;2022-09-28T04:22:03;11.68;;;7.30;;
7108;SDS011;29079;41.930;25.558;2022-09-28T04:24:34;12.15;;;8.02;;
7108;SDS011;29079;41.930;25.558;2022-09-28T04:27:04;15.85;;;8.40;;
7108;SDS011;29079;41.930;25.558;2022-09-28T04:29:50;14.40;;;8.10;;
7108;SDS011;29079;41.930;25.558;2022-09-28T04:32:21;11.32;;;7.07;;
7108;SDS011;29079;41.930;25.558;2022-09-28T04:34:53;9.38;;;7.53;;
7108;SDS011;29079;41.930;25.558;2022-09-28T04:37:23;11.32;;;7.63;;
7108;SDS011;29079;41.930;25.558;2022-09-28T04:39:53;13.32;;;8.35;;
7108;SDS011;29079;41.930;25.558;2022-09-28T04:42:22;16.70;;;8.40;;
7108;SDS011;29079;41.930;25.558;2022-09-28T04:44:52;15.35;;;10.48;;
7108;SDS011;29079;41.930;25.558;2022-09-28T04:47:27;14.35;;;8.95;;
7108;SDS011;29079;41.930;25.558;2022-09-28T04:49:58;15.43;;;9.40;;
7108;SDS011;29079;41.930;25.558;2022-09-28T04:52:27;14.07;;;9.02;;
7108;SDS011;29079;41.930;25.558;2022-09-28T04:54:57;15.18;;;9.88;;
7108;SDS011;29079;41.930;25.558;2022-09-28T04:57:27;11.15;;;8.07;;
7108;SDS011;29079;41.930;25.558;2022-09-28T04:59:57;10.70;;;8.10;;
7108;SDS011;29079;41.930;25.558;2022-09-28T05:02:28;9.93;;;7.05;;
7108;SDS011;29079;41.930;25.558;2022-09-28T05:04:59;12.32;;;7.68;;
7108;SDS011;29079;41.930;25.558;2022-09-28T05:07:29;11.65;;;7.53;;
7108;SDS011;29079;41.930;25.558;2022-09-28T05:09:59;26.33;;;8.98;;
7108;SDS011;29079;41.930;25.558;2022-09-28T05:12:29;15.88;;;7.13;;
7108;SDS011;29079;41.930;25.558;2022-09-28T05:15:00;10.20;;;7.15;;
7108;SDS011;29079;41.930;25.558;2022-09-28T05:17:32;8.73;;;6.97;;
7108;SDS011;29079;41.930;25.558;2022-09-28T05:20:02;10.82;;;7.35;;
7108;SDS011;29079;41.930;25.558;2022-09-28T05:22:32;10.93;;;6.53;;
7108;SDS011;29079;41.930;25.558;2022-09-28T05:25:02;10.02;;;7.80;;
7108;SDS011;29079;41.930;25.558;2022-09-28T05:27:32;12.90;;;7.28;;
7108;SDS011;29079;41.930;25.558;2022-09-28T05:30:02;11.30;;;8.07;;
7108;SDS011;29079;41.930;25.558;2022-09-28T05:32:34;11.20;;;8.07;;
7108;SDS011;29079;41.930;25.558;2022-09-28T05:35:07;18.50;;;8.77;;
7108;SDS011;29079;41.930;25.558;2022-09-28T05:37:38;12.73;;;8.07;;
7108;SDS011;29079;41.930;25.558;2022-09-28T05:40:08;12.00;;;8.90;;
7108;SDS011;29079;41.930;25.558;2022-09-28T05:42:39;16.08;;;9.13;;
7108;SDS011;29079;41.930;25.558;2022-09-28T05:45:09;10.80;;;7.18;;
7108;SDS011;29079;41.930;25.558;2022-09-28T05:47:41;10.02;;;6.70;;
7108;SDS011;29079;41.930;25.558;2022-09-28T05:50:13;10.50;;;7.05;;
7108;SDS011;29079;41.930;25.558;2022-09-28T05:52:43;14.70;;;7.47;;
7108;SDS011;29079;41.930;25.558;2022-09-28T05:55:13;16.58;;;7.38;;
7108;SDS011;29079;41.930;25.558;2022-09-28T05:57:45;14.85;;;8.15;;
7108;SDS011;29079;41.930;25.558;2022-09-28T06:00:15;15.90;;;7.57;;
7108;SDS011;29079;41.930;25.558;2022-09-28T06:02:55;44.13;;;11.98;;
7108;SDS011;29079;41.930;25.558;2022-09-28T06:05:26;22.95;;;9.52;;
7108;SDS011;29079;41.930;25.558;2022-09-28T06:07:56;11.40;;;8.38;;
7108;SDS011;29079;41.930;25.558;2022-09-28T06:10:27;13.40;;;8.20;;
7108;SDS011;29079;41.930;25.558;2022-09-28T06:12:57;13.80;;;8.43;;
7108;SDS011;29079;41.930;25.558;2022-09-28T06:15:30;14.23;;;8.25;;
7108;SDS011;29079;41.930;25.558;2022-09-28T06:18:04;16.80;;;8.07;;
7108;SDS011;29079;41.930;25.558;2022-09-28T06:20:36;10.57;;;7.30;;
7108;SDS011;29079;41.930;25.558;2022-09-28T06:23:08;9.63;;;7.40;;
7108;SDS011;29079;41.930;25.558;2022-09-28T06:25:38;15.10;;;6.80;;
7108;SDS011;29079;41.930;25.558;2022-09-28T06:28:09;7.05;;;6.18;;
7108;SDS011;29079;41.930;25.558;2022-09-28T06:30:40;11.68;;;6.97;;
7108;SDS011;29079;41.930;25.558;2022-09-28T06:33:13;12.80;;;7.38;;
7108;SDS011;29079;41.930;25.558;2022-09-28T06:35:45;11.90;;;7.32;;
7108;SDS011;29079;41.930;25.558;2022-09-28T06:38:15;11.80;;;6.28;;
7108;SDS011;29079;41.930;25.558;2022-09-28T06:40:44;9.77;;;5.50;;
7108;SDS011;29079;41.930;25.558;2022-09-28T06:43:14;12.63;;;6.22;;
7108;SDS011;29079;41.930;25.558;2022-09-28T06:45:49;7.28;;;5.18;;
7108;SDS011;29079;41.930;25.558;2022-09-28T06:48:21;6.70;;;5.28;;
7108;SDS011;29079;41.930;25.558;2022-09-28T06:50:51;10.15;;;5.72;;
7108;SDS011;29079;41.930;25.558;2022-09-28T06:53:20;9.18;;;5.88;;
7108;SDS011;29079;41.930;25.558;2022-09-28T06:55:50;9.10;;;5.47;;
7108;SDS011;29079;41.930;25.558;2022-09-28T06:58:20;9.57;;;5.72;;
7108;SDS011;29079;41.930;25.558;2022-09-28T07:00:51;9.95;;;5.68;;
7108;SDS011;29079;41.930;25.558;2022-09-28T07:03:22;8.60;;;5.30;;
7108;SDS011;29079;41.930;25.558;2022-09-28T07:05:55;7.80;;;5.35;;
7108;SDS011;29079;41.930;25.558;2022-09-28T07:08:25;9.68;;;5.15;;
7108;SDS011;29079;41.930;25.558;2022-09-28T07:10:56;8.57;;;5.07;;
7108;SDS011;29079;41.930;25.558;2022-09-28T07:13:26;9.00;;;5.38;;
7108;SDS011;29079;41.930;25.558;2022-09-28T07:16:17;6.88;;;4.85;;
7108;SDS011;29079;41.930;25.558;2022-09-28T07:18:55;8.05;;;6.00;;
7108;SDS011;29079;41.930;25.558;2022-09-28T07:21:25;9.18;;;6.25;;
7108;SDS011;29079;41.930;25.558;2022-09-28T07:23:58;9.35;;;6.00;;
7108;SDS011;29079;41.930;25.558;2022-09-28T07:26:28;14.50;;;5.68;;
7108;SDS011;29079;41.930;25.558;2022-09-28T07:29:00;13.00;;;5.70;;
7108;SDS011;29079;41.930;25.558;2022-09-28T07:31:30;10.98;;;7.95;;
7108;SDS011;29079;41.930;25.558;2022-09-28T07:34:03;21.60;;;11.88;;
7108;SDS011;29079;41.930;25.558;2022-09-28T07:36:34;11.63;;;8.93;;
7108;SDS011;29079;41.930;25.558;2022-09-28T07:39:04;12.30;;;7.72;;
7108;SDS011;29079;41.930;25.558;2022-09-28T07:41:34;8.70;;;5.38;;
7108;SDS011;29079;41.930;25.558;2022-09-28T07:44:03;13.35;;;10.80;;
7108;SDS011;29079;41.930;25.558;2022-09-28T07:46:33;31.65;;;24.42;;
7108;SDS011;29079;41.930;25.558;2022-09-28T07:49:06;8.15;;;6.10;;
7108;SDS011;29079;41.930;25.558;2022-09-28T07:51:39;7.13;;;5.43;;
7108;SDS011;29079;41.930;25.558;2022-09-28T07:54:11;9.50;;;4.95;;
7108;SDS011;29079;41.930;25.558;2022-09-28T07:56:41;8.07;;;4.70;;
7108;SDS011;29079;41.930;25.558;2022-09-28T07:59:11;6.22;;;4.63;;
7108;SDS011;29079;41.930;25.558;2022-09-28T08:04:17;9.27;;;5.10;;
7108;SDS011;29079;41.930;25.558;2022-09-28T08:06:48;11.25;;;5.07;;
7108;SDS011;29079;41.930;25.558;2022-09-28T08:09:18;9.98;;;5.43;;
7108;SDS011;29079;41.930;25.558;2022-09-28T08:11:48;6.55;;;4.53;;
7108;SDS011;29079;41.930;25.558;2022-09-28T08:14:18;6.68;;;5.03;;
7108;SDS011;29079;41.930;25.558;2022-09-28T08:16:48;8.43;;;5.10;;
7108;SDS011;29079;41.930;25.558;2022-09-28T08:19:22;8.52;;;5.45;;
7108;SDS011;29079;41.930;25.558;2022-09-28T08:21:52;9.07;;;4.95;;
7108;SDS011;29079;41.930;25.558;2022-09-28T08:24:21;5.88;;;4.38;;
7108;SDS011;29079;41.930;25.558;2022-09-28T08:26:51;10.50;;;5.53;;
7108;SDS011;29079;41.930;25.558;2022-09-28T08:29:23;9.43;;;5.47;;
7108;SDS011;29079;41.930;25.558;2022-09-28T08:31:53;6.45;;;5.85;;
7108;SDS011;29079;41.930;25.558;2022-09-28T08:34:30;11.25;;;5.45;;
7108;SDS011;29079;41.930;25.558;2022-09-28T08:37:00;9.30;;;5.35;;
7108;SDS011;29079;41.930;25.558;2022-09-28T08:39:30;9.98;;;4.68;;
7108;SDS011;29079;41.930;25.558;2022-09-28T08:42:07;8.23;;;5.57;;
7108;SDS011;29079;41.930;25.558;2022-09-28T08:45:03;13.10;;;5.07;;
7108;SDS011;29079;41.930;25.558;2022-09-28T08:47:39;6.82;;;5.03;;
7108;SDS011;29079;41.930;25.558;2022-09-28T08:50:37;8.35;;;5.43;;
7108;SDS011;29079;41.930;25.558;2022-09-28T08:53:19;9.68;;;5.03;;
7108;SDS011;29079;41.930;25.558;2022-09-28T08:56:04;7.53;;;5.55;;
7108;SDS011;29079;41.930;25.558;2022-09-28T08:58:39;8.27;;;5.60;;
7108;SDS011;29079;41.930;25.558;2022-09-28T09:01:12;8.80;;;5.18;;
7108;SDS011;29079;41.930;25.558;2022-09-28T09:03:46;8.57;;;4.97;;
7108;SDS011;29079;41.930;25.558;2022-09-28T09:06:20;7.85;;;4.80;;
7108;SDS011;29079;41.930;25.558;2022-09-28T09:08:58;5.45;;;4.50;;
7108;SDS011;29079;41.930;25.558;2022-09-28T09:11:41;9.35;;;5.00;;
7108;SDS011;29079;41.930;25.558;2022-09-28T09:14:25;5.35;;;4.60;;
7108;SDS011;29079;41.930;25.558;2022-09-28T09:17:20;5.32;;;4.03;;
7108;SDS011;29079;41.930;25.558;2022-09-28T09:20:01;4.93;;;4.22;;
7108;SDS011;29079;41.930;25.558;2022-09-28T09:22:43;5.68;;;3.97;;
7108;SDS011;29079;41.930;25.558;2022-09-28T09:25:26;6.60;;;5.13;;
7108;SDS011;29079;41.930;25.558;2022-09-28T09:28:10;6.03;;;4.20;;
7108;SDS011;29079;41.930;25.558;2022-09-28T09:31:06;6.63;;;4.20;;
7108;SDS011;29079;41.930;25.558;2022-09-28T09:33:49;6.68;;;4.28;;
7108;SDS011;29079;41.930;25.558;2022-09-28T09:36:33;6.97;;;4.38;;
7108;SDS011;29079;41.930;25.558;2022-09-28T09:39:17;6.13;;;4.28;;
7108;SDS011;29079;41.930;25.558;2022-09-28T09:42:01;6.93;;;3.72;;
7108;SDS011;29079;41.930;25.558;2022-09-28T09:44:47;3.88;;;3.40;;
7108;SDS011;29079;41.930;25.558;2022-09-28T09:47:29;7.35;;;3.35;;
7108;SDS011;29079;41.930;25.558;2022-09-28T09:50:02;9.75;;;4.38;;
7108;SDS011;29079;41.930;25.558;2022-09-28T09:52:41;3.38;;;2.95;;
7108;SDS011;29079;41.930;25.558;2022-09-28T09:55:21;5.45;;;3.05;;
7108;SDS011;29079;41.930;25.558;2022-09-28T09:57:59;3.70;;;2.60;;
7108;SDS011;29079;41.930;25.558;2022-09-28T10:00:38;3.80;;;2.92;;
7108;SDS011;29079;41.930;25.558;2022-09-28T10:03:12;3.30;;;3.00;;
7108;SDS011;29079;41.930;25.558;2022-09-28T10:05:53;11.18;;;5.25;;
7108;SDS011;29079;41.930;25.558;2022-09-28T10:08:26;6.53;;;5.82;;
7108;SDS011;29079;41.930;25.558;2022-09-28T10:11:03;5.53;;;3.40;;
7108;SDS011;29079;41.930;25.558;2022-09-28T10:13:37;7.07;;;2.90;;
7108;SDS011;29079;41.930;25.558;2022-09-28T10:16:08;3.20;;;2.85;;
7108;SDS011;29079;41.930;25.558;2022-09-28T10:18:39;3.25;;;2.95;;
7108;SDS011;29079;41.930;25.558;2022-09-28T10:21:10;5.72;;;3.33;;
7108;SDS011;29079;41.930;25.558;2022-09-28T10:23:42;5.25;;;2.63;;
7108;SDS011;29079;41.930;25.558;2022-09-28T10:26:15;3.42;;;2.55;;
7108;SDS011;29079;41.930;25.558;2022-09-28T10:28:53;4.63;;;2.33;;
7108;SDS011;29079;41.930;25.558;2022-09-28T10:31:33;5.00;;;2.97;;
7108;SDS011;29079;41.930;25.558;2022-09-28T10:34:05;6.40;;;2.63;;
7108;SDS011;29079;41.930;25.558;2022-09-28T10:36:42;7.32;;;2.88;;
7108;SDS011;29079;41.930;25.558;2022-09-28T10:39:21;4.05;;;2.20;;
7108;SDS011;29079;41.930;25.558;2022-09-28T10:41:59;2.33;;;2.13;;
7108;SDS011;29079;41.930;25.558;2022-09-28T10:44:32;5.00;;;2.95;;
7108;SDS011;29079;41.930;25.558;2022-09-28T10:47:07;6.13;;;1.98;;
7108;SDS011;29079;41.930;25.558;2022-09-28T10:49:43;3.97;;;2.05;;
7108;SDS011;29079;41.930;25.558;2022-09-28T10:52:32;3.15;;;2.30;;
7108;SDS011;29079;41.930;25.558;2022-09-28T10:57:56;5.95;;;2.45;;
7108;SDS011;29079;41.930;25.558;2022-09-28T11:00:31;2.75;;;1.73;;
7108;SDS011;29079;41.930;25.558;2022-09-28T11:03:03;5.00;;;2.20;;
7108;SDS011;29079;41.930;25.558;2022-09-28T11:05:34;2.95;;;2.03;;
7108;SDS011;29079;41.930;25.558;2022-09-28T11:08:06;4.15;;;2.38;;
7108;SDS011;29079;41.930;25.558;2022-09-28T11:10:36;3.22;;;2.08;;
7108;SDS011;29079;41.930;25.558;2022-09-28T11:13:08;2.88;;;2.50;;
7108;SDS011;29079;41.930;25.558;2022-09-28T11:15:40;4.35;;;2.30;;
7108;SDS011;29079;41.930;25.558;2022-09-28T11:18:18;6.20;;;2.63;;
7108;SDS011;29079;41.930;25.558;2022-09-28T11:21:06;5.55;;;3.25;;
7108;SDS011;29079;41.930;25.558;2022-09-28T11:23:40;5.60;;;2.55;;
7108;SDS011;29079;41.930;25.558;2022-09-28T11:26:23;5.03;;;3.40;;
7108;SDS011;29079;41.930;25.558;2022-09-28T11:28:54;8.20;;;4.65;;
7108;SDS011;29079;41.930;25.558;2022-09-28T11:31:25;11.43;;;4.88;;
7108;SDS011;29079;41.930;25.558;2022-09-28T11:34:03;6.97;;;4.45;;
7108;SDS011;29079;41.930;25.558;2022-09-28T11:36:44;19.55;;;12.50;;
7108;SDS011;29079;41.930;25.558;2022-09-28T11:39:36;15.02;;;10.05;;
7108;SDS011;29079;41.930;25.558;2022-09-28T11:42:16;14.63;;;11.07;;
7108;SDS011;29079;41.930;25.558;2022-09-28T11:45:00;8.15;;;6.45;;
7108;SDS011;29079;41.930;25.558;2022-09-28T11:47:44;9.50;;;4.45;;
7108;SDS011;29079;41.930;25.558;2022-09-28T11:50:30;8.63;;;3.28;;
7108;SDS011;29079;41.930;25.558;2022-09-28T11:53:12;10.07;;;5.60;;
7108;SDS011;29079;41.930;25.558;2022-09-28T11:55:50;9.45;;;4.65;;
7108;SDS011;29079;41.930;25.558;2022-09-28T11:58:27;9.45;;;4.68;;
7108;SDS011;29079;41.930;25.558;2022-09-28T12:01:03;8.00;;;3.90;;
7108;SDS011;29079;41.930;25.558;2022-09-28T12:03:44;7.13;;;4.82;;
7108;SDS011;29079;41.930;25.558;2022-09-28T12:06:19;8.70;;;4.55;;
7108;SDS011;29079;41.930;25.558;2022-09-28T12:08:54;7.63;;;3.63;;
7108;SDS011;29079;41.930;25.558;2022-09-28T12:11:32;6.63;;;2.97;;
7108;SDS011;29079;41.930;25.558;2022-09-28T12:14:09;6.88;;;3.50;;
7108;SDS011;29079;41.930;25.558;2022-09-28T12:16:48;5.32;;;4.18;;
7108;SDS011;29079;41.930;25.558;2022-09-28T12:19:38;10.63;;;3.05;;
7108;SDS011;29079;41.930;25.558;2022-09-28T12:22:14;2.72;;;2.22;;
7108;SDS011;29079;41.930;25.558;2022-09-28T12:24:50;3.53;;;2.75;;
7108;SDS011;29079;41.930;25.558;2022-09-28T12:27:26;4.80;;;3.10;;
7108;SDS011;29079;41.930;25.558;2022-09-28T12:30:02;3.55;;;3.05;;
7108;SDS011;29079;41.930;25.558;2022-09-28T12:32:35;3.10;;;2.60;;
7108;SDS011;29079;41.930;25.558;2022-09-28T12:35:10;11.23;;;2.85;;
7108;SDS011;29079;41.930;25.558;2022-09-28T12:37:45;4.43;;;2.63;;
7108;SDS011;29079;41.930;25.558;2022-09-28T12:40:34;5.15;;;3.03;;
7108;SDS011;29079;41.930;25.558;2022-09-28T12:43:27;8.88;;;3.75;;
7108;SDS011;29079;41.930;25.558;2022-09-28T12:46:17;5.65;;;4.20;;
7108;SDS011;29079;41.930;25.558;2022-09-28T12:49:08;3.17;;;2.72;;
7108;SDS011;29079;41.930;25.558;2022-09-28T12:52:11;4.47;;;2.47;;
7108;SDS011;29079;41.930;25.558;2022-09-28T12:57:54;4.95;;;3.30;;
7108;SDS011;29079;41.930;25.558;2022-09-28T13:00:29;152.07;;;13.13;;
7108;SDS011;29079;41.930;25.558;2022-09-28T13:03:17;220.13;;;21.83;;
7108;SDS011;29079;41.930;25.558;2022-09-28T13:09:02;8.40;;;2.10;;
7108;SDS011;29079;41.930;25.558;2022-09-28T13:11:47;14.77;;;2.90;;
7108;SDS011;29079;41.930;25.558;2022-09-28T13:14:32;10.73;;;2.83;;
7108;SDS011;29079;41.930;25.558;2022-09-28T13:17:22;4.05;;;2.25;;
7108;SDS011;29079;41.930;25.558;2022-09-28T13:20:11;3.55;;;2.28;;
7108;SDS011;29079;41.930;25.558;2022-09-28T13:23:03;5.75;;;2.20;;
7108;SDS011;29079;41.930;25.558;2022-09-28T13:25:43;3.38;;;2.47;;
7108;SDS011;29079;41.930;25.558;2022-09-28T13:28:18;5.00;;;2.25;;
7108;SDS011;29079;41.930;25.558;2022-09-28T13:30:54;3.33;;;1.88;;
7108;SDS011;29079;41.930;25.558;2022-09-28T13:33:28;4.15;;;2.13;;
7108;SDS011;29079;41.930;25.558;2022-09-28T13:36:33;3.35;;;2.60;;
7108;SDS011;29079;41.930;25.558;2022-09-28T13:42:06;3.80;;;2.00;;
7108;SDS011;29079;41.930;25.558;2022-09-28T13:44:42;4.38;;;2.35;;
7108;SDS011;29079;41.930;25.558;2022-09-28T13:47:33;6.63;;;3.58;;
7108;SDS011;29079;41.930;25.558;2022-09-28T13:50:19;7.15;;;2.58;;
7108;SDS011;29079;41.930;25.558;2022-09-28T13:52:58;7.43;;;2.60;;
7108;SDS011;29079;41.930;25.558;2022-09-28T13:55:36;5.07;;;2.28;;
7108;SDS011;29079;41.930;25.558;2022-09-28T13:58:19;4.55;;;2.40;;
7108;SDS011;29079;41.930;25.558;2022-09-28T14:00:55;3.72;;;2.92;;
7108;SDS011;29079;41.930;25.558;2022-09-28T14:03:41;3.58;;;2.00;;
7108;SDS011;29079;41.930;25.558;2022-09-28T14:06:22;5.78;;;2.47;;
7108;SDS011;29079;41.930;25.558;2022-09-28T14:09:07;3.50;;;2.55;;
7108;SDS011;29079;41.930;25.558;2022-09-28T14:11:54;10.90;;;4.35;;
7108;SDS011;29079;41.930;25.558;2022-09-28T14:14:27;5.55;;;2.72;;
7108;SDS011;29079;41.930;25.558;2022-09-28T14:20:18;7.45;;;2.03;;
7108;SDS011;29079;41.930;25.558;2022-09-28T14:29:05;17.67;;;4.28;;
7108;SDS011;29079;41.930;25.558;2022-09-28T14:31:44;25.83;;;5.23;;
7108;SDS011;29079;41.930;25.558;2022-09-28T14:34:25;20.60;;;4.05;;
7108;SDS011;29079;41.930;25.558;2022-09-28T14:37:01;24.90;;;4.00;;
7108;SDS011;29079;41.930;25.558;2022-09-28T14:39:50;8.63;;;3.63;;
7108;SDS011;29079;41.930;25.558;2022-09-28T14:42:38;10.52;;;3.42;;
7108;SDS011;29079;41.930;25.558;2022-09-28T14:48:14;11.38;;;3.20;;
7108;SDS011;29079;41.930;25.558;2022-09-28T14:50:48;4.43;;;2.72;;
7108;SDS011;29079;41.930;25.558;2022-09-28T14:53:19;4.80;;;2.42;;
7108;SDS011;29079;41.930;25.558;2022-09-28T14:55:53;6.97;;;2.63;;
7108;SDS011;29079;41.930;25.558;2022-09-28T14:58:26;4.07;;;2.15;;
7108;SDS011;29079;41.930;25.558;2022-09-28T15:01:00;4.18;;;2.65;;
7108;SDS011;29079;41.930;25.558;2022-09-28T15:03:33;4.25;;;2.20;;
7108;SDS011;29079;41.930;25.558;2022-09-28T15:06:10;2.95;;;2.10;;
7108;SDS011;29079;41.930;25.558;2022-09-28T15:08:43;5.18;;;2.13;;
7108;SDS011;29079;41.930;25.558;2022-09-28T15:11:14;5.97;;;2.47;;
7108;SDS011;29079;41.930;25.558;2022-09-28T15:13:48;6.30;;;2.70;;
7108;SDS011;29079;41.930;25.558;2022-09-28T15:16:22;4.60;;;2.67;;
7108;SDS011;29079;41.930;25.558;2022-09-28T15:19:08;6.43;;;2.97;;
7108;SDS011;29079;41.930;25.558;2022-09-28T15:21:50;4.47;;;3.03;;
7108;SDS011;29079;41.930;25.558;2022-09-28T15:24:25;3.70;;;2.50;;
7108;SDS011;29079;41.930;25.558;2022-09-28T15:26:58;4.57;;;2.95;;
7108;SDS011;29079;41.930;25.558;2022-09-28T15:29:29;4.82;;;3.60;;
7108;SDS011;29079;41.930;25.558;2022-09-28T15:32:02;6.45;;;3.90;;
7108;SDS011;29079;41.930;25.558;2022-09-28T15:34:32;7.10;;;3.80;;
7108;SDS011;29079;41.930;25.558;2022-09-28T15:37:22;6.70;;;3.30;;
7108;SDS011;29079;41.930;25.558;2022-09-28T15:39:54;13.80;;;3.70;;
7108;SDS011;29079;41.930;25.558;2022-09-28T15:42:26;7.68;;;2.63;;
7108;SDS011;29079;41.930;25.558;2022-09-28T15:45:00;7.05;;;2.58;;
7108;SDS011;29079;41.930;25.558;2022-09-28T15:47:36;3.78;;;2.42;;
7108;SDS011;29079;41.930;25.558;2022-09-28T15:50:17;3.97;;;2.70;;
7108;SDS011;29079;41.930;25.558;2022-09-28T15:52:53;14.82;;;3.70;;
7108;SDS011;29079;41.930;25.558;2022-09-28T15:55:29;4.95;;;2.90;;
7108;SDS011;29079;41.930;25.558;2022-09-28T15:58:04;6.85;;;2.70;;
7108;SDS011;29079;41.930;25.558;2022-09-28T16:00:36;8.77;;;3.13;;
7108;SDS011;29079;41.930;25.558;2022-09-28T16:03:20;6.95;;;2.70;;